Terminal Aerodrome Forecast
Issued by NWS

Current Version | Previous Version | Text Only | Print | Product List | Glossary On
Versions: 1 2 3 4 5 6 7 8 9 10 11 12 13 14 15 16 17 18 19 20 21 22 23 24 25
000
FTUS44 KOUN 060245 AAA
TAFHBR
TAF AMD
KHBR 060245Z 0603/0624 16014KT P6SM VCTS SCT005 OVC011CB
      TEMPO 0603/0605 24010G20KT 5SM -TSRA OVC009CB
     FM060500 17015G22KT 6SM BR OVC005
      TEMPO 0605/0608 3SM -TSRA BR OVC006CB
     FM060800 17016G24KT 4SM BR OVC006
      TEMPO 0609/0613 3SM BR OVC002
     FM061300 19021G29KT P6SM OVC012
     FM061700 18022G30KT P6SM BKN020=

USA.gov is the U.S. government's official web portal to all federal, state and local government web resources and services.